Hauptseite
METAR-TAF:

METAR-TAF

Flughäfen :

Hagåtña, Guam, Vereinigte Staaten

Flughafen Antonio B. Won Pat

Breite: 13-29N, Länge: 144-48E, Höhe: 91 m

Beobachtung

Neuester Wetterbericht von vor 11 Minuten, um 13:54 UTC
Wind 6 kt aus Ost
Temperatur 27°C
Luftfeuchtigkeit 84%
Luftdruck 1015 hPa
Sichtweite: 16.1 km
Leicht bewölkt in der Höhe von 4000 ft

METAR: PGUM 241354Z 09006KT 10SM FEW040 27/24 A2996 RMK AO2 SLP136 T02670239 403110244

Zeit: 00:05 (14:05 UTC)

Prognose

Neuester Wetterbericht von vor 2 Stunden und 45 Minuten, um 11:20 UTC
Gültige Prognose vom 24 um 12 UTC bis 25 um 18 UTC
Wind 9 kt aus Ost/Nordost
Sichtweite: 10 km
Leicht bewölkt in der Höhe von 2200 ft
Aufgelockert bewölkt in der Höhe von 5000 ft
Schauer in der Nähe

TAF: PGUM 241120Z 2412/2518 07009KT P6SM VCSH FEW022 SCT050

Wetterbeobachtungen und Prognosen von mehr als 4000 Flughäfen (METAR und TAF Bericht).

Die verfügbaren Stationen werden durch gelbe und rote Markierungen auf der Karte dargestellt.

Führen Sie die Maus auf sie, um den Namen der Station zu sehen.

Darauf klicken, um die Beobachtung von Wetterbeobachtungen und Prognosen zu sehen.

Um die Karte zu ändern : klicken Sie auf den grünen Tasten mit einem schwarzen Kreuz Zum Vergrößern, auf den grünen Button mit einem Gedankenstrich zu verkleinern, oder auf die grünen Pfeile für benachbarte Karten.


METAR-TAF: